createdAt,value
2018-09-24T00:00:32.403Z,20.92
2018-09-24T00:01:32.463Z,20.93
2018-09-24T00:02:32.616Z,20.92
2018-09-24T00:03:32.581Z,20.92
2018-09-24T00:04:32.588Z,20.92
2018-09-24T00:05:32.723Z,20.91
2018-09-24T00:06:32.316Z,20.92
2018-09-24T00:07:32.520Z,20.91
2018-09-24T00:08:32.645Z,20.91
2018-09-24T00:09:32.502Z,20.91
2018-09-24T00:10:32.580Z,20.91
2018-09-24T00:11:32.565Z,20.91
2018-09-24T00:12:32.447Z,20.91
2018-09-24T00:13:32.540Z,20.91
2018-09-24T00:14:32.624Z,20.91
2018-09-24T00:15:32.760Z,20.91
2018-09-24T00:16:32.384Z,20.9
2018-09-24T00:17:32.724Z,20.9
2018-09-24T00:18:32.606Z,20.9
2018-09-24T00:19:32.561Z,20.9
2018-09-24T00:20:32.359Z,20.91
2018-09-24T00:21:32.513Z,20.91
2018-09-24T00:22:32.307Z,20.89
2018-09-24T00:23:32.412Z,20.9
2018-09-24T00:24:32.352Z,20.9
2018-09-24T00:25:32.538Z,20.89
2018-09-24T00:26:32.500Z,20.88
2018-09-24T00:27:32.322Z,20.89
2018-09-24T00:28:32.614Z,20.89
2018-09-24T00:29:32.528Z,20.89
2018-09-24T00:30:32.486Z,20.89
2018-09-24T00:31:32.502Z,20.89
2018-09-24T00:32:32.316Z,20.9
2018-09-24T00:33:32.525Z,20.89
2018-09-24T00:34:32.285Z,20.88
2018-09-24T00:35:32.517Z,20.87
2018-09-24T00:36:32.744Z,20.88
2018-09-24T00:37:32.415Z,20.88
2018-09-24T00:38:32.770Z,20.88
2018-09-24T00:39:32.492Z,20.88
2018-09-24T00:40:32.578Z,20.88
2018-09-24T00:41:32.400Z,20.87
2018-09-24T00:42:32.759Z,20.87
2018-09-24T00:43:32.656Z,20.87
2018-09-24T00:44:32.490Z,20.87
2018-09-24T00:45:32.606Z,20.87
2018-09-24T00:46:32.513Z,20.87
2018-09-24T00:47:32.631Z,20.87
2018-09-24T00:48:32.692Z,20.87
2018-09-24T00:49:32.312Z,20.87
2018-09-24T00:50:32.739Z,20.87
2018-09-24T00:51:32.735Z,20.87
2018-09-24T00:52:32.435Z,20.88
2018-09-24T00:53:32.729Z,20.87
2018-09-24T00:54:32.742Z,20.88
2018-09-24T00:55:32.559Z,20.87
2018-09-24T00:56:32.693Z,20.87
2018-09-24T00:57:32.583Z,20.87
2018-09-24T00:58:32.254Z,20.86
2018-09-24T00:59:32.511Z,20.86
2018-09-24T01:00:32.763Z,20.85
2018-09-24T01:01:32.524Z,20.87
2018-09-24T01:02:32.586Z,20.86
2018-09-24T01:03:32.397Z,20.87
2018-09-24T01:04:32.719Z,20.86
2018-09-24T01:05:32.814Z,20.85
2018-09-24T01:06:32.358Z,20.86
2018-09-24T01:07:32.541Z,20.86
2018-09-24T01:08:32.608Z,20.86
2018-09-24T01:09:32.661Z,20.86
2018-09-24T01:10:32.490Z,20.87
2018-09-24T01:11:32.581Z,20.86
2018-09-24T01:12:32.665Z,20.87
2018-09-24T01:13:32.399Z,20.86
2018-09-24T01:14:32.688Z,20.85
2018-09-24T01:15:32.830Z,20.84
2018-09-24T01:16:32.533Z,20.85
2018-09-24T01:17:32.301Z,20.85
2018-09-24T01:18:32.537Z,20.85
2018-09-24T01:19:32.528Z,20.85
2018-09-24T01:20:33.047Z,20.84
2018-09-24T01:21:32.748Z,20.86
2018-09-24T01:22:32.535Z,20.86
2018-09-24T01:23:32.645Z,20.84
2018-09-24T01:24:32.627Z,20.84
2018-09-24T01:25:32.326Z,20.85
2018-09-24T01:26:32.775Z,20.84
2018-09-24T01:27:32.527Z,20.84
2018-09-24T01:28:32.598Z,20.83
2018-09-24T01:29:32.741Z,20.83
2018-09-24T01:30:32.388Z,20.83
2018-09-24T01:31:32.605Z,20.83
2018-09-24T01:32:32.396Z,20.83
2018-09-24T01:33:32.980Z,20.83
2018-09-24T01:34:32.859Z,20.83
2018-09-24T01:35:32.698Z,20.82
2018-09-24T01:36:32.385Z,20.82
2018-09-24T01:37:32.638Z,20.83
2018-09-24T01:38:32.656Z,20.83
2018-09-24T01:39:32.653Z,20.82
2018-09-24T01:40:32.515Z,20.82
2018-09-24T01:41:32.708Z,20.82
2018-09-24T01:42:32.558Z,20.82
2018-09-24T01:43:32.436Z,20.82
2018-09-24T01:44:32.437Z,20.82
2018-09-24T01:45:32.910Z,20.82
2018-09-24T01:46:32.808Z,20.83
2018-09-24T01:47:32.361Z,20.81
2018-09-24T01:48:32.360Z,20.82
2018-09-24T01:49:32.562Z,20.81
2018-09-24T01:50:32.526Z,20.82
2018-09-24T01:51:32.593Z,20.82
2018-09-24T01:52:32.328Z,20.82
2018-09-24T01:53:32.474Z,20.8
2018-09-24T01:54:32.448Z,20.8
2018-09-24T01:55:32.219Z,20.81
2018-09-24T01:56:32.591Z,20.81
2018-09-24T01:57:32.409Z,20.81
2018-09-24T01:58:32.518Z,20.8
2018-09-24T01:59:32.475Z,20.81
2018-09-24T02:00:32.462Z,20.81
2018-09-24T02:01:32.388Z,20.81
2018-09-24T02:02:32.238Z,20.81
2018-09-24T02:03:32.840Z,20.8
2018-09-24T02:04:32.458Z,20.81
2018-09-24T02:05:32.536Z,20.81
2018-09-24T02:06:32.508Z,20.8
2018-09-24T02:07:32.563Z,20.8
2018-09-24T02:08:32.553Z,20.79
2018-09-24T02:09:32.396Z,20.79
2018-09-24T02:10:32.385Z,20.8
2018-09-24T02:11:32.417Z,20.81
2018-09-24T02:12:32.450Z,20.8
2018-09-24T02:13:32.492Z,20.8
2018-09-24T02:14:32.493Z,20.8
2018-09-24T02:15:32.637Z,20.8
2018-09-24T02:16:32.547Z,20.8
2018-09-24T02:17:32.318Z,20.8
2018-09-24T02:18:32.566Z,20.8
2018-09-24T02:19:32.738Z,20.8
2018-09-24T02:20:32.545Z,20.8
2018-09-24T02:21:32.674Z,20.8
2018-09-24T02:22:32.243Z,20.8
2018-09-24T02:23:32.363Z,20.8
2018-09-24T02:24:32.751Z,20.79
2018-09-24T02:25:32.580Z,20.8
2018-09-24T02:26:32.364Z,20.8
2018-09-24T02:27:32.773Z,20.8
2018-09-24T02:28:32.613Z,20.8
2018-09-24T02:29:32.341Z,20.8
2018-09-24T02:30:32.608Z,20.79
2018-09-24T02:31:32.251Z,20.79
2018-09-24T02:32:32.295Z,20.79
2018-09-24T02:33:32.631Z,20.8
2018-09-24T02:34:32.515Z,20.79
2018-09-24T02:35:32.476Z,20.78
2018-09-24T02:36:32.307Z,20.77
2018-09-24T02:37:32.666Z,20.78
2018-09-24T02:38:32.464Z,20.8
2018-09-24T02:39:32.286Z,20.78
2018-09-24T02:40:32.364Z,20.79
2018-09-24T02:41:32.475Z,20.77
2018-09-24T02:42:32.307Z,20.78
2018-09-24T02:43:32.510Z,20.78
2018-09-24T02:44:32.657Z,20.78
2018-09-24T02:45:32.622Z,20.77
2018-09-24T02:46:32.422Z,20.76
2018-09-24T02:47:32.326Z,20.77
2018-09-24T02:48:32.440Z,20.76
2018-09-24T02:49:32.363Z,20.76
2018-09-24T02:50:32.659Z,20.77
2018-09-24T02:51:32.350Z,20.75
2018-09-24T02:52:32.563Z,20.75
2018-09-24T02:53:32.585Z,20.77
2018-09-24T02:54:32.494Z,20.75
2018-09-24T02:55:32.591Z,20.76
2018-09-24T02:56:32.356Z,20.77
2018-09-24T02:57:32.807Z,20.75
2018-09-24T02:58:32.824Z,20.75
2018-09-24T02:59:32.504Z,20.75
2018-09-24T03:00:32.480Z,20.75
2018-09-24T03:01:32.326Z,20.76
2018-09-24T03:02:32.477Z,20.74
2018-09-24T03:03:32.897Z,20.74
2018-09-24T03:04:32.695Z,20.76
2018-09-24T03:05:32.375Z,20.75
2018-09-24T03:06:32.588Z,20.75
2018-09-24T03:07:32.313Z,20.77
2018-09-24T03:08:32.314Z,20.76
2018-09-24T03:09:32.406Z,20.77
2018-09-24T03:10:32.223Z,20.76
2018-09-24T03:11:32.285Z,20.75
2018-09-24T03:12:32.541Z,20.77
2018-09-24T03:13:32.223Z,20.77
2018-09-24T03:14:32.326Z,20.75
2018-09-24T03:15:32.315Z,20.74
2018-09-24T03:16:32.533Z,20.75
2018-09-24T03:17:32.442Z,20.74
2018-09-24T03:18:32.323Z,20.73
2018-09-24T03:19:32.527Z,20.74
2018-09-24T03:20:32.308Z,20.74
2018-09-24T03:21:32.419Z,20.74
2018-09-24T03:22:32.485Z,20.74
2018-09-24T03:23:32.332Z,20.74
2018-09-24T03:24:32.368Z,20.74
2018-09-24T03:25:32.353Z,20.74
2018-09-24T03:26:32.439Z,20.73
2018-09-24T03:27:32.527Z,20.73
2018-09-24T03:28:32.277Z,20.74
2018-09-24T03:29:32.219Z,20.73
2018-09-24T03:30:32.610Z,20.73
2018-09-24T03:31:32.473Z,20.72
2018-09-24T03:32:32.671Z,20.74
2018-09-24T03:33:32.651Z,20.73
2018-09-24T03:34:32.968Z,20.72
2018-09-24T03:35:32.480Z,20.72
2018-09-24T03:36:32.589Z,20.73
2018-09-24T03:37:32.621Z,20.72
2018-09-24T03:38:32.384Z,20.72
2018-09-24T03:39:32.368Z,20.73
2018-09-24T03:40:32.291Z,20.71
2018-09-24T03:41:32.705Z,20.72
2018-09-24T03:42:32.222Z,20.72
2018-09-24T03:43:32.744Z,20.73
2018-09-24T03:44:32.622Z,20.72
2018-09-24T03:45:32.398Z,20.72
2018-09-24T03:46:32.536Z,20.72
2018-09-24T03:47:32.498Z,20.71
2018-09-24T03:48:32.468Z,20.71
2018-09-24T03:49:32.351Z,20.72
2018-09-24T03:50:32.291Z,20.72
2018-09-24T03:51:32.218Z,20.71
2018-09-24T03:52:32.264Z,20.71
2018-09-24T03:53:32.232Z,20.71
2018-09-24T03:54:32.287Z,20.72
2018-09-24T03:55:32.528Z,20.73
2018-09-24T03:56:32.464Z,20.72
2018-09-24T03:57:32.288Z,20.72
2018-09-24T03:58:32.617Z,20.73
2018-09-24T03:59:32.315Z,20.71
2018-09-24T04:00:32.395Z,20.72
2018-09-24T04:01:32.369Z,20.73
2018-09-24T04:02:32.272Z,20.71
2018-09-24T04:03:32.674Z,20.71
2018-09-24T04:04:32.466Z,20.72
2018-09-24T04:05:32.524Z,20.71
2018-09-24T04:06:32.392Z,20.71
2018-09-24T04:07:32.222Z,20.71
2018-09-24T04:08:32.456Z,20.71
2018-09-24T04:09:32.541Z,20.7
2018-09-24T04:10:32.458Z,20.7
2018-09-24T04:11:32.363Z,20.7
2018-09-24T04:12:32.661Z,20.7
2018-09-24T04:13:32.326Z,20.71
2018-09-24T04:14:32.630Z,20.71
2018-09-24T04:15:32.457Z,20.7
2018-09-24T04:16:32.666Z,20.71
2018-09-24T04:17:32.702Z,20.71
2018-09-24T04:18:32.407Z,20.7
2018-09-24T04:19:32.791Z,20.7
2018-09-24T04:20:32.574Z,20.7
2018-09-24T04:21:32.356Z,20.69
2018-09-24T04:22:32.337Z,20.69
2018-09-24T04:23:32.524Z,20.69
2018-09-24T04:24:32.614Z,20.69
2018-09-24T04:25:32.231Z,20.69
2018-09-24T04:26:32.641Z,20.69
2018-09-24T04:27:32.637Z,20.7
2018-09-24T04:28:32.319Z,20.7
2018-09-24T04:29:32.298Z,20.69
2018-09-24T04:30:32.451Z,20.69
2018-09-24T04:31:32.392Z,20.7
2018-09-24T04:32:32.292Z,20.69
2018-09-24T04:33:32.265Z,20.69
2018-09-24T04:34:32.439Z,20.69
2018-09-24T04:35:32.244Z,20.69
2018-09-24T04:36:32.481Z,20.68
2018-09-24T04:37:32.404Z,20.69
2018-09-24T04:38:32.221Z,20.69
2018-09-24T04:39:32.351Z,20.69
2018-09-24T04:40:32.529Z,20.69
2018-09-24T04:41:32.458Z,20.7
2018-09-24T04:42:32.379Z,20.68
2018-09-24T04:43:32.504Z,20.69
2018-09-24T04:44:32.528Z,20.68
2018-09-24T04:45:32.410Z,20.69
2018-09-24T04:46:32.564Z,20.67
2018-09-24T04:47:32.351Z,20.68
2018-09-24T04:48:32.258Z,20.68
2018-09-24T04:49:32.354Z,20.68
2018-09-24T04:50:32.376Z,20.68
2018-09-24T04:51:32.552Z,20.69
2018-09-24T04:52:32.544Z,20.69
2018-09-24T04:53:32.708Z,20.68
2018-09-24T04:54:32.184Z,20.68
2018-09-24T04:55:32.480Z,20.69
2018-09-24T04:56:32.238Z,20.68
2018-09-24T04:57:32.349Z,20.69
2018-09-24T04:58:32.593Z,20.7
2018-09-24T04:59:32.253Z,20.69
2018-09-24T05:00:32.242Z,20.68
2018-09-24T05:01:32.628Z,20.69
2018-09-24T05:02:32.332Z,20.69
2018-09-24T05:03:32.699Z,20.68
2018-09-24T05:04:32.350Z,20.68
2018-09-24T05:05:32.355Z,20.68
2018-09-24T05:06:32.280Z,20.69
2018-09-24T05:07:32.684Z,20.67
2018-09-24T05:08:32.682Z,20.69
2018-09-24T05:09:32.588Z,20.68
2018-09-24T05:10:32.620Z,20.7
2018-09-24T05:11:32.249Z,20.68
2018-09-24T05:12:32.223Z,20.68
2018-09-24T05:13:32.540Z,20.69
2018-09-24T05:14:32.481Z,20.69
2018-09-24T05:15:32.432Z,20.68
2018-09-24T05:16:32.333Z,20.68
2018-09-24T05:17:32.382Z,20.67
2018-09-24T05:18:32.485Z,20.67
2018-09-24T05:19:32.257Z,20.68
2018-09-24T05:20:32.304Z,20.67
2018-09-24T05:21:32.290Z,20.67
2018-09-24T05:22:32.192Z,20.68
2018-09-24T05:23:32.332Z,20.67
2018-09-24T05:24:32.187Z,20.69
2018-09-24T05:25:32.350Z,20.69
2018-09-24T05:26:32.377Z,20.68
2018-09-24T05:27:32.335Z,20.68
2018-09-24T05:28:32.354Z,20.69
2018-09-24T05:29:32.586Z,20.68
2018-09-24T05:30:32.603Z,20.68
2018-09-24T05:31:32.325Z,20.68
2018-09-24T05:32:32.546Z,20.67
2018-09-24T05:33:32.359Z,20.67
2018-09-24T05:34:32.594Z,20.68
2018-09-24T05:35:32.512Z,20.67
2018-09-24T05:36:32.653Z,20.68
2018-09-24T05:37:32.761Z,20.67
2018-09-24T05:38:32.238Z,20.67
2018-09-24T05:39:32.264Z,20.67
2018-09-24T05:40:32.359Z,20.67
2018-09-24T05:41:32.652Z,20.67
2018-09-24T05:42:32.303Z,20.66
2018-09-24T05:43:32.434Z,20.67
2018-09-24T05:44:32.473Z,20.67
2018-09-24T05:45:32.455Z,20.67
2018-09-24T05:46:32.275Z,20.67
2018-09-24T05:47:32.291Z,20.67
2018-09-24T05:48:33.339Z,20.66
2018-09-24T05:49:32.318Z,20.67
2018-09-24T05:50:32.429Z,20.66
2018-09-24T05:51:32.319Z,20.67
2018-09-24T05:52:32.872Z,20.68
2018-09-24T05:53:32.300Z,20.67
2018-09-24T05:54:32.521Z,20.67
2018-09-24T05:55:32.280Z,20.66
2018-09-24T05:56:32.388Z,20.67
2018-09-24T05:57:32.246Z,20.67
2018-09-24T05:58:32.644Z,20.67
2018-09-24T05:59:32.271Z,20.67
2018-09-24T06:00:32.182Z,20.66
2018-09-24T06:01:32.393Z,20.66
2018-09-24T06:02:32.426Z,20.66
2018-09-24T06:03:32.333Z,20.66
2018-09-24T06:04:32.176Z,20.66
2018-09-24T06:05:32.472Z,20.65
2018-09-24T06:06:32.087Z,20.65
2018-09-24T06:07:32.262Z,20.66
2018-09-24T06:08:32.223Z,20.66
2018-09-24T06:09:32.311Z,20.66
2018-09-24T06:10:32.159Z,20.65
2018-09-24T06:11:32.440Z,20.65
2018-09-24T06:12:33.182Z,20.64
2018-09-24T06:13:32.516Z,20.65
2018-09-24T06:14:32.177Z,20.65
2018-09-24T06:15:32.268Z,20.65
2018-09-24T06:16:32.111Z,20.65
2018-09-24T06:17:32.423Z,20.66
2018-09-24T06:18:32.188Z,20.65
2018-09-24T06:19:32.292Z,20.65
2018-09-24T06:20:32.098Z,20.65
2018-09-24T06:21:32.438Z,20.66
2018-09-24T06:22:32.226Z,20.65
2018-09-24T06:23:32.855Z,20.65
2018-09-24T06:24:32.140Z,20.64
2018-09-24T06:25:32.656Z,20.65
2018-09-24T06:26:32.398Z,20.64
2018-09-24T06:27:32.252Z,20.65
2018-09-24T06:28:32.240Z,20.65
2018-09-24T06:29:32.283Z,20.65
2018-09-24T06:30:32.137Z,20.65
2018-09-24T06:31:32.693Z,20.66
2018-09-24T06:32:32.319Z,20.66
2018-09-24T06:33:32.534Z,20.65
2018-09-24T06:34:32.184Z,20.65
2018-09-24T06:35:32.402Z,20.66
2018-09-24T06:36:32.257Z,20.65
2018-09-24T06:37:32.315Z,20.65
2018-09-24T06:38:32.230Z,20.65
2018-09-24T06:39:32.240Z,20.66
2018-09-24T06:40:32.193Z,20.65
2018-09-24T06:41:32.381Z,20.66
2018-09-24T06:42:32.074Z,20.66
2018-09-24T06:43:32.257Z,20.65
2018-09-24T06:44:32.521Z,20.65
2018-09-24T06:45:32.366Z,20.65
2018-09-24T06:46:32.821Z,20.65
2018-09-24T06:47:32.304Z,20.65
2018-09-24T06:48:32.086Z,20.66
2018-09-24T06:49:32.425Z,20.66
2018-09-24T06:50:32.093Z,20.65
2018-09-24T06:51:32.306Z,20.66
2018-09-24T06:52:32.152Z,20.65
2018-09-24T06:53:32.610Z,20.65
2018-09-24T06:54:32.233Z,20.64
2018-09-24T06:55:32.313Z,20.65
2018-09-24T06:56:32.415Z,20.64
2018-09-24T06:57:32.306Z,20.65
2018-09-24T06:58:32.434Z,20.64
2018-09-24T06:59:32.396Z,20.64
2018-09-24T07:00:32.260Z,20.65
2018-09-24T07:01:32.373Z,20.65
2018-09-24T07:02:32.322Z,20.67
2018-09-24T07:03:32.610Z,20.65
2018-09-24T07:04:32.205Z,20.65
2018-09-24T07:05:32.365Z,20.65
2018-09-24T07:06:32.156Z,20.65
2018-09-24T07:07:32.378Z,20.66
2018-09-24T07:08:32.298Z,20.65
2018-09-24T07:09:32.540Z,20.65
2018-09-24T07:10:32.597Z,20.65
2018-09-24T07:11:32.354Z,20.65
2018-09-24T07:12:32.215Z,20.64
2018-09-24T07:13:32.377Z,20.65
2018-09-24T07:14:32.140Z,20.66
2018-09-24T07:15:32.302Z,20.67
2018-09-24T07:16:32.383Z,20.66
2018-09-24T07:17:32.556Z,20.66
2018-09-24T07:18:32.743Z,20.65
2018-09-24T07:19:32.513Z,20.66
2018-09-24T07:20:32.405Z,20.65
2018-09-24T07:21:32.479Z,20.66
2018-09-24T07:22:32.251Z,20.64
2018-09-24T07:23:32.428Z,20.65
2018-09-24T07:24:32.221Z,20.67
2018-09-24T07:25:32.290Z,20.64
2018-09-24T07:26:32.625Z,20.65
2018-09-24T07:27:32.325Z,20.65
2018-09-24T07:28:32.330Z,20.65
2018-09-24T07:29:32.402Z,20.65
2018-09-24T07:30:32.356Z,20.64
2018-09-24T07:31:32.570Z,20.65
2018-09-24T07:32:32.230Z,20.65
2018-09-24T07:33:32.228Z,20.64
2018-09-24T07:34:32.220Z,20.64
2018-09-24T07:35:32.427Z,20.64
2018-09-24T07:36:32.206Z,20.65
2018-09-24T07:37:32.405Z,20.65
2018-09-24T07:38:33.512Z,20.63
2018-09-24T07:39:32.399Z,20.63
2018-09-24T07:40:32.213Z,20.63
2018-09-24T07:41:32.305Z,20.63
2018-09-24T07:42:32.284Z,20.64
2018-09-24T07:43:32.548Z,20.65
2018-09-24T07:44:32.083Z,20.64
2018-09-24T07:45:32.370Z,20.63
2018-09-24T07:46:32.187Z,20.64
2018-09-24T07:47:32.487Z,20.64
2018-09-24T07:48:32.248Z,20.63
2018-09-24T07:49:32.778Z,20.63
2018-09-24T07:50:32.394Z,20.63
2018-09-24T07:51:32.484Z,20.62
2018-09-24T07:52:32.404Z,20.63
2018-09-24T07:53:32.331Z,20.64
2018-09-24T07:54:32.487Z,20.62
2018-09-24T07:55:32.415Z,20.63
2018-09-24T07:56:32.251Z,20.62
2018-09-24T07:57:32.464Z,20.63
2018-09-24T07:58:32.510Z,20.63
2018-09-24T07:59:32.728Z,20.62
2018-09-24T08:00:32.192Z,20.61
2018-09-24T08:01:32.455Z,20.62
2018-09-24T08:02:32.333Z,20.61
2018-09-24T08:03:32.463Z,20.61
2018-09-24T08:04:32.536Z,20.61
2018-09-24T08:05:32.467Z,20.6
2018-09-24T08:06:32.844Z,20.61
2018-09-24T08:07:32.342Z,20.61
2018-09-24T08:08:32.259Z,20.61
2018-09-24T08:09:32.698Z,20.62
2018-09-24T08:10:32.581Z,20.62
2018-09-24T08:11:32.554Z,20.61
2018-09-24T08:12:32.353Z,20.62
2018-09-24T08:13:32.411Z,20.63
2018-09-24T08:14:32.373Z,20.62
2018-09-24T08:15:32.511Z,20.61
2018-09-24T08:16:32.538Z,20.63
2018-09-24T08:17:32.486Z,20.63
2018-09-24T08:18:32.196Z,20.63
2018-09-24T08:19:32.467Z,20.63
2018-09-24T08:20:32.261Z,20.62
2018-09-24T08:21:32.719Z,20.61
2018-09-24T08:22:32.293Z,20.62
2018-09-24T08:23:32.262Z,20.62
2018-09-24T08:24:32.291Z,20.62
2018-09-24T08:25:32.362Z,20.62
2018-09-24T08:26:32.221Z,20.61
2018-09-24T08:27:32.747Z,20.62
2018-09-24T08:28:32.643Z,20.63
2018-09-24T08:29:32.402Z,20.62
2018-09-24T08:30:32.329Z,20.62
2018-09-24T08:31:32.732Z,20.62
2018-09-24T08:32:32.243Z,20.6
2018-09-24T08:33:32.392Z,20.61
2018-09-24T08:34:32.142Z,20.61
2018-09-24T08:35:32.567Z,20.6
2018-09-24T08:36:32.277Z,20.61
2018-09-24T08:37:32.567Z,20.61
2018-09-24T08:38:32.227Z,20.59
2018-09-24T08:39:32.620Z,20.6
2018-09-24T08:40:32.245Z,20.59
2018-09-24T08:41:32.729Z,20.6
2018-09-24T08:42:32.102Z,20.59
2018-09-24T08:43:32.710Z,20.6
2018-09-24T08:44:32.241Z,20.6
2018-09-24T08:45:32.509Z,20.59
2018-09-24T08:46:32.191Z,20.6
2018-09-24T08:47:32.143Z,20.61
2018-09-24T08:48:32.203Z,20.63
2018-09-24T08:49:32.405Z,20.57
2018-09-24T08:50:32.724Z,20.6
2018-09-24T08:51:32.220Z,20.62
2018-09-24T08:52:32.349Z,20.62
2018-09-24T08:53:32.471Z,20.62
2018-09-24T08:54:32.301Z,20.62
2018-09-24T08:55:32.277Z,20.58
2018-09-24T08:56:32.397Z,20.58
2018-09-24T08:57:32.391Z,20.56
2018-09-24T08:58:32.577Z,20.57
2018-09-24T08:59:32.620Z,20.54
2018-09-24T09:00:32.421Z,20.53
2018-09-24T09:01:32.427Z,20.54
2018-09-24T09:02:32.419Z,20.52
2018-09-24T09:03:32.299Z,20.53
2018-09-24T09:04:32.211Z,20.51
2018-09-24T09:05:32.280Z,20.51
2018-09-24T09:06:32.229Z,20.54
2018-09-24T09:07:32.432Z,20.56
2018-09-24T09:08:32.414Z,20.58
2018-09-24T09:09:32.348Z,20.6
2018-09-24T09:10:32.212Z,20.61
2018-09-24T09:11:32.421Z,20.63
2018-09-24T09:12:32.189Z,20.65
2018-09-24T09:13:32.307Z,20.65
2018-09-24T09:14:32.272Z,20.66
2018-09-24T09:15:32.372Z,20.66
2018-09-24T09:16:32.379Z,20.68
2018-09-24T09:17:32.200Z,20.66
2018-09-24T09:18:32.256Z,20.67
2018-09-24T09:19:32.201Z,20.69
2018-09-24T09:20:32.511Z,20.7
2018-09-24T09:21:32.845Z,20.69
2018-09-24T09:22:32.423Z,20.71
2018-09-24T09:23:32.352Z,20.7
2018-09-24T09:24:32.426Z,20.72
2018-09-24T09:25:32.264Z,20.73
2018-09-24T09:26:32.496Z,20.72
2018-09-24T09:27:32.291Z,20.72
2018-09-24T09:28:32.734Z,20.75
2018-09-24T09:29:32.397Z,20.74
2018-09-24T09:30:32.271Z,20.77
2018-09-24T09:31:32.522Z,20.76
2018-09-24T09:32:33.309Z,20.77
2018-09-24T09:33:32.383Z,20.78
2018-09-24T09:34:32.717Z,20.78
2018-09-24T09:35:32.363Z,20.79
2018-09-24T09:36:32.260Z,20.8
2018-09-24T09:37:32.319Z,20.8
2018-09-24T09:38:32.196Z,20.8
2018-09-24T09:39:32.731Z,20.81
2018-09-24T09:40:32.516Z,20.82
2018-09-24T09:41:32.320Z,20.82
2018-09-24T09:42:32.367Z,20.81
2018-09-24T09:43:32.567Z,20.85
2018-09-24T09:44:32.279Z,20.84
2018-09-24T09:45:32.375Z,20.83
2018-09-24T09:46:32.589Z,20.84
2018-09-24T09:47:32.396Z,20.86
2018-09-24T09:48:32.507Z,20.85
2018-09-24T09:49:32.289Z,20.86
2018-09-24T09:50:32.251Z,20.87
2018-09-24T09:51:32.367Z,20.88
2018-09-24T09:52:32.297Z,20.88
2018-09-24T09:53:32.322Z,20.89
2018-09-24T09:54:32.432Z,20.89
2018-09-24T09:55:32.276Z,20.89
2018-09-24T09:56:32.159Z,20.89
2018-09-24T09:57:32.873Z,20.89
2018-09-24T09:58:32.570Z,20.9
2018-09-24T09:59:32.533Z,20.91
2018-09-24T10:00:32.867Z,20.88
2018-09-24T10:01:32.678Z,20.87
2018-09-24T10:02:32.182Z,20.87
2018-09-24T10:03:32.301Z,20.87
2018-09-24T10:04:32.374Z,20.87
2018-09-24T10:05:32.193Z,20.85
2018-09-24T10:06:32.861Z,20.84
2018-09-24T10:07:32.279Z,20.86
2018-09-24T10:08:32.537Z,20.84
2018-09-24T10:09:32.373Z,20.83
2018-09-24T10:10:32.800Z,20.84
2018-09-24T10:11:32.378Z,20.82
2018-09-24T10:12:32.404Z,20.83
2018-09-24T10:13:32.562Z,20.83
2018-09-24T10:14:32.250Z,20.82
2018-09-24T10:15:32.624Z,20.81
2018-09-24T10:16:32.265Z,20.81
2018-09-24T10:17:32.782Z,20.83
2018-09-24T10:18:32.574Z,20.84
2018-09-24T10:19:32.291Z,20.84
2018-09-24T10:20:32.180Z,20.84
2018-09-24T10:21:32.412Z,20.85
2018-09-24T10:22:32.585Z,20.87
2018-09-24T10:23:32.282Z,20.85
2018-09-24T10:24:32.453Z,20.85
2018-09-24T10:25:32.270Z,20.86
2018-09-24T10:26:32.418Z,20.86
2018-09-24T10:27:32.369Z,20.88
2018-09-24T10:28:32.339Z,20.88
2018-09-24T10:29:32.580Z,20.86
2018-09-24T10:30:33.039Z,20.87
2018-09-24T10:31:32.517Z,20.89
2018-09-24T10:32:32.218Z,20.87
2018-09-24T10:33:32.685Z,20.88
2018-09-24T10:34:32.403Z,20.9
2018-09-24T10:35:32.467Z,20.91
2018-09-24T10:36:32.346Z,20.91
2018-09-24T10:37:32.547Z,20.9
2018-09-24T10:38:32.254Z,20.9
2018-09-24T10:39:32.585Z,20.93
2018-09-24T10:40:32.258Z,20.93
2018-09-24T10:41:32.292Z,20.93
2018-09-24T10:42:32.383Z,20.93
2018-09-24T10:43:32.288Z,20.93
2018-09-24T10:44:32.320Z,20.92
2018-09-24T10:45:32.191Z,20.93
2018-09-24T10:46:32.245Z,20.93
2018-09-24T10:47:32.195Z,20.93
2018-09-24T10:48:32.417Z,20.94
2018-09-24T10:49:32.251Z,20.94
2018-09-24T10:50:32.367Z,20.94
2018-09-24T10:51:32.333Z,20.92
2018-09-24T10:52:32.307Z,20.92
2018-09-24T10:53:32.418Z,20.94
2018-09-24T10:54:32.321Z,20.92
2018-09-24T10:55:32.311Z,20.93
2018-09-24T10:56:32.394Z,20.93
2018-09-24T10:57:32.371Z,20.94
2018-09-24T10:58:32.209Z,20.95
2018-09-24T10:59:32.447Z,20.95
2018-09-24T11:00:32.260Z,20.94
2018-09-24T11:01:32.375Z,20.93
2018-09-24T11:02:32.235Z,20.95
2018-09-24T11:03:32.723Z,20.94
2018-09-24T11:04:32.419Z,20.95
2018-09-24T11:05:32.438Z,20.93
2018-09-24T11:06:32.209Z,20.94
2018-09-24T11:07:32.511Z,20.95
2018-09-24T11:08:32.426Z,20.96
2018-09-24T11:09:32.481Z,20.96
2018-09-24T11:10:32.519Z,20.96
2018-09-24T11:11:32.109Z,20.96
2018-09-24T11:12:32.472Z,20.97
2018-09-24T11:13:32.383Z,20.99
2018-09-24T11:14:32.466Z,20.98
2018-09-24T11:15:32.183Z,20.98
2018-09-24T11:16:32.525Z,20.98
2018-09-24T11:17:32.599Z,20.97
2018-09-24T11:18:32.422Z,20.96
2018-09-24T11:19:32.917Z,20.96
2018-09-24T11:20:32.164Z,20.98
2018-09-24T11:21:32.746Z,20.98
2018-09-24T11:22:32.350Z,20.95
2018-09-24T11:23:32.566Z,20.96
2018-09-24T11:24:32.465Z,20.95
2018-09-24T11:25:32.296Z,20.96
2018-09-24T11:27:32.214Z,20.96
2018-09-24T11:28:32.790Z,20.96
2018-09-24T11:29:32.495Z,20.97
2018-09-24T11:30:32.491Z,20.98
2018-09-24T11:31:32.392Z,20.98
2018-09-24T11:32:32.448Z,20.95
2018-09-24T11:33:32.735Z,20.96
2018-09-24T11:34:32.249Z,20.96
2018-09-24T11:35:32.302Z,20.96
2018-09-24T11:36:32.328Z,20.95
2018-09-24T11:37:32.618Z,20.95
2018-09-24T11:38:32.453Z,20.95
2018-09-24T11:39:32.164Z,20.95
2018-09-24T11:40:32.223Z,20.94
2018-09-24T11:41:32.380Z,20.94
2018-09-24T11:42:33.393Z,20.96
2018-09-24T11:43:32.159Z,20.93
2018-09-24T11:44:32.287Z,20.95
2018-09-24T11:45:32.354Z,20.94
2018-09-24T11:46:32.617Z,20.92
2018-09-24T11:47:32.522Z,20.92
2018-09-24T11:48:32.378Z,20.92
2018-09-24T11:49:32.123Z,20.91
2018-09-24T11:50:32.332Z,20.92
2018-09-24T11:51:32.432Z,20.9
2018-09-24T11:52:32.204Z,20.91
2018-09-24T11:53:32.653Z,20.9
2018-09-24T11:54:32.509Z,20.91
2018-09-24T11:55:32.529Z,20.92
2018-09-24T11:56:32.781Z,20.94
2018-09-24T11:57:33.316Z,20.96
2018-09-24T11:58:32.783Z,20.94
2018-09-24T11:59:33.384Z,20.95
2018-09-24T12:00:32.201Z,20.96
2018-09-24T12:01:32.304Z,20.96
2018-09-24T12:02:32.519Z,20.93
2018-09-24T12:03:32.454Z,20.95
2018-09-24T12:04:32.493Z,20.97
2018-09-24T12:05:32.285Z,20.96
2018-09-24T12:06:32.246Z,20.97
2018-09-24T12:07:32.153Z,20.96
2018-09-24T12:08:32.133Z,20.97
2018-09-24T12:09:32.357Z,20.97
2018-09-24T12:10:32.596Z,20.99
2018-09-24T12:11:32.116Z,20.97
2018-09-24T12:12:32.715Z,20.98
2018-09-24T12:13:32.811Z,20.97
2018-09-24T12:14:32.332Z,20.96
2018-09-24T12:15:32.301Z,20.96
2018-09-24T12:16:32.223Z,20.96
2018-09-24T12:17:32.470Z,20.96
2018-09-24T12:18:32.285Z,20.94
2018-09-24T12:19:32.550Z,20.95
2018-09-24T12:20:32.368Z,20.93
2018-09-24T12:21:32.234Z,20.93
2018-09-24T12:22:32.484Z,20.92
2018-09-24T12:23:32.351Z,20.92
2018-09-24T12:24:32.277Z,20.91
2018-09-24T12:25:32.387Z,20.92
2018-09-24T12:26:32.497Z,20.91
2018-09-24T12:27:33.238Z,20.91
2018-09-24T12:28:32.285Z,20.91
2018-09-24T12:29:32.408Z,20.91
2018-09-24T12:30:32.294Z,20.91
2018-09-24T12:31:32.652Z,20.91
2018-09-24T12:32:32.312Z,20.91
2018-09-24T12:33:32.330Z,20.9
2018-09-24T12:34:32.032Z,20.89
2018-09-24T12:35:32.460Z,20.9
2018-09-24T12:36:32.489Z,20.89
2018-09-24T12:37:32.418Z,20.89
2018-09-24T12:38:32.860Z,20.9
2018-09-24T12:39:32.379Z,20.9
2018-09-24T12:40:32.201Z,20.89
2018-09-24T12:41:32.196Z,20.88
2018-09-24T12:42:32.432Z,20.86
2018-09-24T12:43:32.298Z,20.85
2018-09-24T12:44:32.305Z,20.83
2018-09-24T12:45:32.310Z,20.83
2018-09-24T12:46:32.379Z,20.82
2018-09-24T12:47:32.360Z,20.83
2018-09-24T12:48:32.533Z,20.83
2018-09-24T12:49:32.434Z,20.83
2018-09-24T12:50:32.254Z,20.82
2018-09-24T12:51:32.507Z,20.81
2018-09-24T12:52:32.360Z,20.8
2018-09-24T12:53:32.422Z,20.79
2018-09-24T12:54:32.512Z,20.8
2018-09-24T12:55:32.531Z,20.79
2018-09-24T12:56:32.314Z,20.79